sensor_id;sensor_type;location;lat;lon;timestamp;temperature;humidity
1103;DHT22;538;42.654;23.376;2022-08-19T00:00:39;22.50;19.50
1103;DHT22;538;42.654;23.376;2022-08-19T00:03:07;22.30;19.40
1103;DHT22;538;42.654;23.376;2022-08-19T00:05:34;22.30;19.70
1103;DHT22;538;42.654;23.376;2022-08-19T00:08:02;22.30;19.80
1103;DHT22;538;42.654;23.376;2022-08-19T00:10:30;22.30;20.10
1103;DHT22;538;42.654;23.376;2022-08-19T00:12:57;22.30;20.00
1103;DHT22;538;42.654;23.376;2022-08-19T00:15:24;22.30;19.90
1103;DHT22;538;42.654;23.376;2022-08-19T00:17:51;22.30;20.60
1103;DHT22;538;42.654;23.376;2022-08-19T00:20:21;22.30;20.20
1103;DHT22;538;42.654;23.376;2022-08-19T00:22:48;22.40;20.10
1103;DHT22;538;42.654;23.376;2022-08-19T00:25:16;22.40;21.40
1103;DHT22;538;42.654;23.376;2022-08-19T00:27:44;22.50;21.20
1103;DHT22;538;42.654;23.376;2022-08-19T00:30:11;22.40;21.90
1103;DHT22;538;42.654;23.376;2022-08-19T00:32:39;22.30;22.00
1103;DHT22;538;42.654;23.376;2022-08-19T00:35:07;22.40;22.00
1103;DHT22;538;42.654;23.376;2022-08-19T00:37:37;22.30;22.00
1103;DHT22;538;42.654;23.376;2022-08-19T00:40:06;22.40;22.00
1103;DHT22;538;42.654;23.376;2022-08-19T00:42:33;22.30;22.00
1103;DHT22;538;42.654;23.376;2022-08-19T00:45:00;22.30;21.60
1103;DHT22;538;42.654;23.376;2022-08-19T00:47:27;22.20;21.20
1103;DHT22;538;42.654;23.376;2022-08-19T00:49:57;22.20;20.90
1103;DHT22;538;42.654;23.376;2022-08-19T00:52:28;22.10;20.90
1103;DHT22;538;42.654;23.376;2022-08-19T00:54:58;22.00;21.20
1103;DHT22;538;42.654;23.376;2022-08-19T00:57:30;22.10;21.10
1103;DHT22;538;42.654;23.376;2022-08-19T00:59:59;22.10;21.90
1103;DHT22;538;42.654;23.376;2022-08-19T01:02:29;22.10;21.90
1103;DHT22;538;42.654;23.376;2022-08-19T01:04:57;22.20;21.90
1103;DHT22;538;42.654;23.376;2022-08-19T01:07:25;22.10;22.10
1103;DHT22;538;42.654;23.376;2022-08-19T01:09:53;22.20;22.10
1103;DHT22;538;42.654;23.376;2022-08-19T01:12:22;22.20;22.40
1103;DHT22;538;42.654;23.376;2022-08-19T01:14:50;22.10;21.90
1103;DHT22;538;42.654;23.376;2022-08-19T01:17:18;22.10;21.90
1103;DHT22;538;42.654;23.376;2022-08-19T01:19:47;22.00;21.80
1103;DHT22;538;42.654;23.376;2022-08-19T01:22:18;22.00;21.80
1103;DHT22;538;42.654;23.376;2022-08-19T01:24:48;21.90;21.70
1103;DHT22;538;42.654;23.376;2022-08-19T01:27:15;21.90;22.60
1103;DHT22;538;42.654;23.376;2022-08-19T01:29:43;21.80;23.60
1103;DHT22;538;42.654;23.376;2022-08-19T01:32:13;21.80;23.90
1103;DHT22;538;42.654;23.376;2022-08-19T01:34:41;21.80;23.20
1103;DHT22;538;42.654;23.376;2022-08-19T01:37:13;21.80;23.00
1103;DHT22;538;42.654;23.376;2022-08-19T01:39:41;21.80;23.50
1103;DHT22;538;42.654;23.376;2022-08-19T01:42:10;21.70;22.60
1103;DHT22;538;42.654;23.376;2022-08-19T01:44:38;21.50;23.10
1103;DHT22;538;42.654;23.376;2022-08-19T01:47:06;21.20;23.80
1103;DHT22;538;42.654;23.376;2022-08-19T01:49:34;21.10;25.00
1103;DHT22;538;42.654;23.376;2022-08-19T01:52:03;20.80;25.50
1103;DHT22;538;42.654;23.376;2022-08-19T01:54:31;20.70;26.20
1103;DHT22;538;42.654;23.376;2022-08-19T01:57:02;20.60;26.50
1103;DHT22;538;42.654;23.376;2022-08-19T01:59:32;20.60;27.00
1103;DHT22;538;42.654;23.376;2022-08-19T02:02:02;20.60;27.30
1103;DHT22;538;42.654;23.376;2022-08-19T02:04:32;20.50;27.60
1103;DHT22;538;42.654;23.376;2022-08-19T02:06:59;20.50;27.80
1103;DHT22;538;42.654;23.376;2022-08-19T02:09:26;20.40;28.00
1103;DHT22;538;42.654;23.376;2022-08-19T02:11:53;20.50;28.00
1103;DHT22;538;42.654;23.376;2022-08-19T02:14:20;20.60;28.40
1103;DHT22;538;42.654;23.376;2022-08-19T02:16:49;20.70;28.30
1103;DHT22;538;42.654;23.376;2022-08-19T02:19:16;20.60;28.50
1103;DHT22;538;42.654;23.376;2022-08-19T02:21:43;20.60;29.80
1103;DHT22;538;42.654;23.376;2022-08-19T02:24:10;20.70;28.80
1103;DHT22;538;42.654;23.376;2022-08-19T02:26:37;20.80;29.50
1103;DHT22;538;42.654;23.376;2022-08-19T02:29:05;20.80;29.20
1103;DHT22;538;42.654;23.376;2022-08-19T02:31:32;20.80;28.70
1103;DHT22;538;42.654;23.376;2022-08-19T02:34:01;20.70;29.80
1103;DHT22;538;42.654;23.376;2022-08-19T02:36:28;20.70;29.80
1103;DHT22;538;42.654;23.376;2022-08-19T02:38:55;20.60;30.50
1103;DHT22;538;42.654;23.376;2022-08-19T02:41:24;20.60;30.70
1103;DHT22;538;42.654;23.376;2022-08-19T02:43:51;20.70;31.00
1103;DHT22;538;42.654;23.376;2022-08-19T02:46:21;20.70;31.30
1103;DHT22;538;42.654;23.376;2022-08-19T02:48:50;20.70;31.10
1103;DHT22;538;42.654;23.376;2022-08-19T02:51:20;20.70;32.50
1103;DHT22;538;42.654;23.376;2022-08-19T02:53:48;20.60;31.00
1103;DHT22;538;42.654;23.376;2022-08-19T02:56:16;20.70;30.90
1103;DHT22;538;42.654;23.376;2022-08-19T02:58:43;20.60;30.10
1103;DHT22;538;42.654;23.376;2022-08-19T03:01:10;20.70;29.90
1103;DHT22;538;42.654;23.376;2022-08-19T03:03:38;20.70;30.00
1103;DHT22;538;42.654;23.376;2022-08-19T03:06:07;20.70;30.00
1103;DHT22;538;42.654;23.376;2022-08-19T03:08:36;20.70;28.60
1103;DHT22;538;42.654;23.376;2022-08-19T03:11:03;20.70;27.60
1103;DHT22;538;42.654;23.376;2022-08-19T03:13:31;20.70;27.50
1103;DHT22;538;42.654;23.376;2022-08-19T03:15:58;20.60;27.60
1103;DHT22;538;42.654;23.376;2022-08-19T03:18:26;20.50;28.20
1103;DHT22;538;42.654;23.376;2022-08-19T03:20:53;20.30;28.40
1103;DHT22;538;42.654;23.376;2022-08-19T03:23:21;20.30;29.20
1103;DHT22;538;42.654;23.376;2022-08-19T03:25:52;20.20;29.20
1103;DHT22;538;42.654;23.376;2022-08-19T03:28:20;20.20;29.60
1103;DHT22;538;42.654;23.376;2022-08-19T03:30:57;20.20;29.90
1103;DHT22;538;42.654;23.376;2022-08-19T03:33:26;20.10;30.60
1103;DHT22;538;42.654;23.376;2022-08-19T03:36:04;20.00;30.90
1103;DHT22;538;42.654;23.376;2022-08-19T03:38:33;20.00;31.60
1103;DHT22;538;42.654;23.376;2022-08-19T03:41:05;19.90;32.10
1103;DHT22;538;42.654;23.376;2022-08-19T03:43:35;19.90;32.50
1103;DHT22;538;42.654;23.376;2022-08-19T03:46:07;19.80;33.20
1103;DHT22;538;42.654;23.376;2022-08-19T03:48:36;19.90;33.10
1103;DHT22;538;42.654;23.376;2022-08-19T03:51:04;19.90;33.30
1103;DHT22;538;42.654;23.376;2022-08-19T03:53:32;19.90;33.20
1103;DHT22;538;42.654;23.376;2022-08-19T03:56:00;20.00;34.10
1103;DHT22;538;42.654;23.376;2022-08-19T03:58:30;20.10;35.00
1103;DHT22;538;42.654;23.376;2022-08-19T04:00:57;20.20;33.50
1103;DHT22;538;42.654;23.376;2022-08-19T04:03:25;20.20;32.40
1103;DHT22;538;42.654;23.376;2022-08-19T04:05:52;20.20;32.40
1103;DHT22;538;42.654;23.376;2022-08-19T04:08:20;20.20;31.40
1103;DHT22;538;42.654;23.376;2022-08-19T04:10:48;20.20;30.40
1103;DHT22;538;42.654;23.376;2022-08-19T04:13:16;20.20;30.80
1103;DHT22;538;42.654;23.376;2022-08-19T04:15:46;20.30;30.30
1103;DHT22;538;42.654;23.376;2022-08-19T04:18:13;20.30;30.30
1103;DHT22;538;42.654;23.376;2022-08-19T04:20:42;20.40;29.70
1103;DHT22;538;42.654;23.376;2022-08-19T04:23:10;20.40;29.30
1103;DHT22;538;42.654;23.376;2022-08-19T04:25:38;20.40;29.00
1103;DHT22;538;42.654;23.376;2022-08-19T04:28:06;20.30;29.50
1103;DHT22;538;42.654;23.376;2022-08-19T04:30:39;20.30;29.60
1103;DHT22;538;42.654;23.376;2022-08-19T04:33:09;20.30;29.60
1103;DHT22;538;42.654;23.376;2022-08-19T04:35:37;20.30;29.50
1103;DHT22;538;42.654;23.376;2022-08-19T04:38:05;20.30;29.50
1103;DHT22;538;42.654;23.376;2022-08-19T04:40:32;20.30;30.00
1103;DHT22;538;42.654;23.376;2022-08-19T04:43:17;20.30;30.30
1103;DHT22;538;42.654;23.376;2022-08-19T04:45:46;20.30;30.90
1103;DHT22;538;42.654;23.376;2022-08-19T04:48:15;20.40;30.30
1103;DHT22;538;42.654;23.376;2022-08-19T04:50:43;20.50;31.00
1103;DHT22;538;42.654;23.376;2022-08-19T04:53:10;20.50;31.10
1103;DHT22;538;42.654;23.376;2022-08-19T04:55:41;20.40;33.20
1103;DHT22;538;42.654;23.376;2022-08-19T04:58:08;20.30;35.70
1103;DHT22;538;42.654;23.376;2022-08-19T05:00:38;20.40;34.80
1103;DHT22;538;42.654;23.376;2022-08-19T05:03:05;20.40;33.00
1103;DHT22;538;42.654;23.376;2022-08-19T05:05:38;20.40;33.40
1103;DHT22;538;42.654;23.376;2022-08-19T05:08:06;20.50;32.70
1103;DHT22;538;42.654;23.376;2022-08-19T05:10:35;20.50;32.70
1103;DHT22;538;42.654;23.376;2022-08-19T05:13:02;20.50;32.70
1103;DHT22;538;42.654;23.376;2022-08-19T05:15:29;20.60;32.20
1103;DHT22;538;42.654;23.376;2022-08-19T05:17:56;20.70;31.80
1103;DHT22;538;42.654;23.376;2022-08-19T05:20:54;20.80;31.10
1103;DHT22;538;42.654;23.376;2022-08-19T05:23:38;20.90;31.10
1103;DHT22;538;42.654;23.376;2022-08-19T05:26:06;21.00;30.40
1103;DHT22;538;42.654;23.376;2022-08-19T05:28:34;21.10;29.40
1103;DHT22;538;42.654;23.376;2022-08-19T05:31:02;21.20;29.40
1103;DHT22;538;42.654;23.376;2022-08-19T05:33:30;21.20;29.40
1103;DHT22;538;42.654;23.376;2022-08-19T05:35:58;21.30;29.30
1103;DHT22;538;42.654;23.376;2022-08-19T05:38:25;21.40;29.00
1103;DHT22;538;42.654;23.376;2022-08-19T05:40:52;21.50;28.50
1103;DHT22;538;42.654;23.376;2022-08-19T05:43:19;21.70;27.80
1103;DHT22;538;42.654;23.376;2022-08-19T05:45:47;21.70;27.40
1103;DHT22;538;42.654;23.376;2022-08-19T05:48:16;21.90;26.20
1103;DHT22;538;42.654;23.376;2022-08-19T05:50:46;22.00;25.60
1103;DHT22;538;42.654;23.376;2022-08-19T05:53:17;22.10;25.40
1103;DHT22;538;42.654;23.376;2022-08-19T05:55:44;22.20;25.80
1103;DHT22;538;42.654;23.376;2022-08-19T05:58:11;22.30;25.80
1103;DHT22;538;42.654;23.376;2022-08-19T06:00:38;22.40;25.40
1103;DHT22;538;42.654;23.376;2022-08-19T06:03:06;22.50;25.30
1103;DHT22;538;42.654;23.376;2022-08-19T06:05:33;22.50;25.10
1103;DHT22;538;42.654;23.376;2022-08-19T06:08:00;22.50;24.70
1103;DHT22;538;42.654;23.376;2022-08-19T06:10:28;22.50;24.60
1103;DHT22;538;42.654;23.376;2022-08-19T06:12:55;22.60;24.40
1103;DHT22;538;42.654;23.376;2022-08-19T06:15:23;22.80;23.70
1103;DHT22;538;42.654;23.376;2022-08-19T06:17:53;23.00;22.90
1103;DHT22;538;42.654;23.376;2022-08-19T06:20:20;23.10;22.50
1103;DHT22;538;42.654;23.376;2022-08-19T06:22:48;23.20;22.20
1103;DHT22;538;42.654;23.376;2022-08-19T06:25:17;23.30;22.20
1103;DHT22;538;42.654;23.376;2022-08-19T06:27:46;23.50;21.90
1103;DHT22;538;42.654;23.376;2022-08-19T06:30:13;23.60;21.90
1103;DHT22;538;42.654;23.376;2022-08-19T06:32:41;23.70;21.20
1103;DHT22;538;42.654;23.376;2022-08-19T06:35:08;23.90;21.50
1103;DHT22;538;42.654;23.376;2022-08-19T06:37:36;24.00;21.50
1103;DHT22;538;42.654;23.376;2022-08-19T06:40:04;24.10;21.50
1103;DHT22;538;42.654;23.376;2022-08-19T06:42:32;24.20;21.10
1103;DHT22;538;42.654;23.376;2022-08-19T06:45:01;24.30;20.50
1103;DHT22;538;42.654;23.376;2022-08-19T06:47:29;24.40;19.70
1103;DHT22;538;42.654;23.376;2022-08-19T06:49:58;24.40;19.90
1103;DHT22;538;42.654;23.376;2022-08-19T06:52:28;24.50;19.90
1103;DHT22;538;42.654;23.376;2022-08-19T06:54:55;24.60;19.60
1103;DHT22;538;42.654;23.376;2022-08-19T06:57:23;24.80;19.80
1103;DHT22;538;42.654;23.376;2022-08-19T06:59:51;24.90;19.80
1103;DHT22;538;42.654;23.376;2022-08-19T07:02:20;25.10;19.90
1103;DHT22;538;42.654;23.376;2022-08-19T07:04:48;25.20;19.60
1103;DHT22;538;42.654;23.376;2022-08-19T07:07:16;25.30;19.60
1103;DHT22;538;42.654;23.376;2022-08-19T07:09:44;25.40;19.20
1103;DHT22;538;42.654;23.376;2022-08-19T07:12:13;25.50;19.10
1103;DHT22;538;42.654;23.376;2022-08-19T07:14:41;25.50;18.70
1103;DHT22;538;42.654;23.376;2022-08-19T07:17:12;25.70;18.20
1103;DHT22;538;42.654;23.376;2022-08-19T07:19:41;25.70;18.00
1103;DHT22;538;42.654;23.376;2022-08-19T07:22:09;25.80;17.70
1103;DHT22;538;42.654;23.376;2022-08-19T07:24:37;25.90;17.40
1103;DHT22;538;42.654;23.376;2022-08-19T07:27:05;26.10;17.30
1103;DHT22;538;42.654;23.376;2022-08-19T07:29:35;26.10;16.90
1103;DHT22;538;42.654;23.376;2022-08-19T07:32:03;26.20;16.50
1103;DHT22;538;42.654;23.376;2022-08-19T07:34:31;26.20;15.80
1103;DHT22;538;42.654;23.376;2022-08-19T07:37:01;26.20;16.00
1103;DHT22;538;42.654;23.376;2022-08-19T07:39:31;26.20;16.00
1103;DHT22;538;42.654;23.376;2022-08-19T07:42:01;26.30;15.60
1103;DHT22;538;42.654;23.376;2022-08-19T07:44:29;26.40;15.10
1103;DHT22;538;42.654;23.376;2022-08-19T07:46:57;26.50;15.10
1103;DHT22;538;42.654;23.376;2022-08-19T07:49:25;26.60;13.90
1103;DHT22;538;42.654;23.376;2022-08-19T07:51:56;26.70;13.80
1103;DHT22;538;42.654;23.376;2022-08-19T07:54:26;26.80;14.00
1103;DHT22;538;42.654;23.376;2022-08-19T07:56:53;27.00;13.30
1103;DHT22;538;42.654;23.376;2022-08-19T07:59:21;27.10;13.00
1103;DHT22;538;42.654;23.376;2022-08-19T08:01:49;27.20;13.00
1103;DHT22;538;42.654;23.376;2022-08-19T08:04:16;27.30;13.10
1103;DHT22;538;42.654;23.376;2022-08-19T08:07:01;27.30;13.10
1103;DHT22;538;42.654;23.376;2022-08-19T08:09:44;27.50;13.20
1103;DHT22;538;42.654;23.376;2022-08-19T08:12:14;27.50;12.00
1103;DHT22;538;42.654;23.376;2022-08-19T08:14:45;27.60;12.30
1103;DHT22;538;42.654;23.376;2022-08-19T08:17:13;27.70;11.80
1103;DHT22;538;42.654;23.376;2022-08-19T08:19:42;27.90;11.90
1103;DHT22;538;42.654;23.376;2022-08-19T08:22:11;28.20;12.30
1103;DHT22;538;42.654;23.376;2022-08-19T08:25:04;28.30;11.60
1103;DHT22;538;42.654;23.376;2022-08-19T08:27:34;28.40;11.10
1103;DHT22;538;42.654;23.376;2022-08-19T08:30:02;28.50;10.60
1103;DHT22;538;42.654;23.376;2022-08-19T08:32:29;28.80;10.30
1103;DHT22;538;42.654;23.376;2022-08-19T08:34:56;28.90;10.20
1103;DHT22;538;42.654;23.376;2022-08-19T08:37:24;29.10;10.20
1103;DHT22;538;42.654;23.376;2022-08-19T08:39:52;29.20;9.00
1103;DHT22;538;42.654;23.376;2022-08-19T08:42:24;29.30;8.80
1103;DHT22;538;42.654;23.376;2022-08-19T08:44:58;29.40;9.40
1103;DHT22;538;42.654;23.376;2022-08-19T08:47:27;29.50;8.30
1103;DHT22;538;42.654;23.376;2022-08-19T08:49:59;29.70;8.00
1103;DHT22;538;42.654;23.376;2022-08-19T08:52:30;29.90;7.40
1103;DHT22;538;42.654;23.376;2022-08-19T08:55:04;30.00;6.10
1103;DHT22;538;42.654;23.376;2022-08-19T08:57:42;30.10;5.80
1103;DHT22;538;42.654;23.376;2022-08-19T09:00:17;30.30;6.30
1103;DHT22;538;42.654;23.376;2022-08-19T09:02:47;30.50;3.90
1103;DHT22;538;42.654;23.376;2022-08-19T09:05:14;30.50;4.40
1103;DHT22;538;42.654;23.376;2022-08-19T09:07:44;30.60;4.00
1103;DHT22;538;42.654;23.376;2022-08-19T09:10:20;30.80;4.70
1103;DHT22;538;42.654;23.376;2022-08-19T09:12:55;30.90;4.70
1103;DHT22;538;42.654;23.376;2022-08-19T09:15:29;30.90;3.50
1103;DHT22;538;42.654;23.376;2022-08-19T09:18:00;31.10;2.80
1103;DHT22;538;42.654;23.376;2022-08-19T09:20:29;31.40;4.70
1103;DHT22;538;42.654;23.376;2022-08-19T09:22:57;31.70;4.80
1103;DHT22;538;42.654;23.376;2022-08-19T09:25:25;32.00;1.00
1103;DHT22;538;42.654;23.376;2022-08-19T09:27:55;32.00;1.00
1103;DHT22;538;42.654;23.376;2022-08-19T09:30:24;32.70;1.00
1103;DHT22;538;42.654;23.376;2022-08-19T09:32:52;33.60;1.00
1103;DHT22;538;42.654;23.376;2022-08-19T09:35:21;34.90;1.00
1103;DHT22;538;42.654;23.376;2022-08-19T09:37:49;36.10;1.00
1103;DHT22;538;42.654;23.376;2022-08-19T09:40:17;36.70;1.00
1103;DHT22;538;42.654;23.376;2022-08-19T09:42:45;38.10;1.00
1103;DHT22;538;42.654;23.376;2022-08-19T09:45:15;37.80;1.00
1103;DHT22;538;42.654;23.376;2022-08-19T09:47:42;39.00;1.00
1103;DHT22;538;42.654;23.376;2022-08-19T09:50:11;39.20;1.00
1103;DHT22;538;42.654;23.376;2022-08-19T09:52:38;40.70;1.00
1103;DHT22;538;42.654;23.376;2022-08-19T09:55:09;39.60;1.00
1103;DHT22;538;42.654;23.376;2022-08-19T09:57:37;40.90;1.00
1103;DHT22;538;42.654;23.376;2022-08-19T10:00:07;40.60;1.00
1103;DHT22;538;42.654;23.376;2022-08-19T10:02:36;41.60;1.00
1103;DHT22;538;42.654;23.376;2022-08-19T10:05:04;41.20;1.00
1103;DHT22;538;42.654;23.376;2022-08-19T10:07:48;42.40;1.00
1103;DHT22;538;42.654;23.376;2022-08-19T10:10:16;41.70;1.00
1103;DHT22;538;42.654;23.376;2022-08-19T10:12:43;43.30;1.00
1103;DHT22;538;42.654;23.376;2022-08-19T10:15:14;42.50;1.00
1103;DHT22;538;42.654;23.376;2022-08-19T10:17:43;43.30;1.00
1103;DHT22;538;42.654;23.376;2022-08-19T10:20:13;41.90;1.00
1103;DHT22;538;42.654;23.376;2022-08-19T10:22:40;43.20;1.00
1103;DHT22;538;42.654;23.376;2022-08-19T10:25:09;42.30;1.00
1103;DHT22;538;42.654;23.376;2022-08-19T10:27:36;42.90;1.00
1103;DHT22;538;42.654;23.376;2022-08-19T10:30:05;42.20;1.00
1103;DHT22;538;42.654;23.376;2022-08-19T10:32:32;41.30;1.00
1103;DHT22;538;42.654;23.376;2022-08-19T10:35:01;42.20;1.00
1103;DHT22;538;42.654;23.376;2022-08-19T10:37:33;41.60;1.00
1103;DHT22;538;42.654;23.376;2022-08-19T10:40:00;43.40;1.00
1103;DHT22;538;42.654;23.376;2022-08-19T10:42:28;45.00;1.00
1103;DHT22;538;42.654;23.376;2022-08-19T10:44:56;45.60;1.00
1103;DHT22;538;42.654;23.376;2022-08-19T10:47:24;46.40;1.00
1103;DHT22;538;42.654;23.376;2022-08-19T10:49:51;45.00;1.00
1103;DHT22;538;42.654;23.376;2022-08-19T10:52:37;45.60;1.00
1103;DHT22;538;42.654;23.376;2022-08-19T10:55:06;46.40;1.00
1103;DHT22;538;42.654;23.376;2022-08-19T10:57:50;47.40;1.00
1103;DHT22;538;42.654;23.376;2022-08-19T11:00:18;47.90;1.00
1103;DHT22;538;42.654;23.376;2022-08-19T11:02:46;47.70;1.00
1103;DHT22;538;42.654;23.376;2022-08-19T11:05:13;47.80;1.00
1103;DHT22;538;42.654;23.376;2022-08-19T11:07:42;47.20;1.00
1103;DHT22;538;42.654;23.376;2022-08-19T11:10:12;46.30;1.00
1103;DHT22;538;42.654;23.376;2022-08-19T11:12:40;46.20;1.00
1103;DHT22;538;42.654;23.376;2022-08-19T11:15:08;47.00;1.00
1103;DHT22;538;42.654;23.376;2022-08-19T11:17:37;46.60;1.00
1103;DHT22;538;42.654;23.376;2022-08-19T11:20:07;44.20;1.00
1103;DHT22;538;42.654;23.376;2022-08-19T11:22:34;44.00;1.00
1103;DHT22;538;42.654;23.376;2022-08-19T11:25:04;44.60;1.00
1103;DHT22;538;42.654;23.376;2022-08-19T11:27:31;45.90;1.00
1103;DHT22;538;42.654;23.376;2022-08-19T11:29:59;46.80;1.00
1103;DHT22;538;42.654;23.376;2022-08-19T11:32:26;47.50;1.00
1103;DHT22;538;42.654;23.376;2022-08-19T11:34:53;47.60;1.00
1103;DHT22;538;42.654;23.376;2022-08-19T11:37:21;47.10;1.00
1103;DHT22;538;42.654;23.376;2022-08-19T11:39:48;47.00;1.00
1103;DHT22;538;42.654;23.376;2022-08-19T11:42:17;47.20;1.00
1103;DHT22;538;42.654;23.376;2022-08-19T11:45:02;47.60;1.00
1103;DHT22;538;42.654;23.376;2022-08-19T11:47:30;47.70;1.00
1103;DHT22;538;42.654;23.376;2022-08-19T11:49:57;46.80;1.00
1103;DHT22;538;42.654;23.376;2022-08-19T11:52:24;46.60;1.00
1103;DHT22;538;42.654;23.376;2022-08-19T11:54:52;46.80;1.00
1103;DHT22;538;42.654;23.376;2022-08-19T11:57:20;47.70;1.00
1103;DHT22;538;42.654;23.376;2022-08-19T11:59:49;48.20;1.00
1103;DHT22;538;42.654;23.376;2022-08-19T12:02:16;48.60;1.00
1103;DHT22;538;42.654;23.376;2022-08-19T12:04:44;48.40;1.00
1103;DHT22;538;42.654;23.376;2022-08-19T12:07:11;47.70;1.00
1103;DHT22;538;42.654;23.376;2022-08-19T12:09:39;47.00;1.00
1103;DHT22;538;42.654;23.376;2022-08-19T12:12:06;47.20;1.00
1103;DHT22;538;42.654;23.376;2022-08-19T12:14:35;46.70;1.00
1103;DHT22;538;42.654;23.376;2022-08-19T12:17:02;47.00;1.00
1103;DHT22;538;42.654;23.376;2022-08-19T12:19:31;46.50;1.00
1103;DHT22;538;42.654;23.376;2022-08-19T12:22:00;46.30;1.00
1103;DHT22;538;42.654;23.376;2022-08-19T12:24:30;46.60;1.00
1103;DHT22;538;42.654;23.376;2022-08-19T12:26:58;45.50;1.00
1103;DHT22;538;42.654;23.376;2022-08-19T12:29:27;45.10;1.00
1103;DHT22;538;42.654;23.376;2022-08-19T12:31:57;44.00;1.00
1103;DHT22;538;42.654;23.376;2022-08-19T12:34:28;42.60;1.00
1103;DHT22;538;42.654;23.376;2022-08-19T12:36:57;41.40;1.00
1103;DHT22;538;42.654;23.376;2022-08-19T12:39:24;40.30;1.00
1103;DHT22;538;42.654;23.376;2022-08-19T12:41:51;39.90;1.00
1103;DHT22;538;42.654;23.376;2022-08-19T12:44:19;40.00;1.00
1103;DHT22;538;42.654;23.376;2022-08-19T12:46:47;40.20;1.00
1103;DHT22;538;42.654;23.376;2022-08-19T12:49:16;40.00;1.00
1103;DHT22;538;42.654;23.376;2022-08-19T12:51:43;39.90;1.00
1103;DHT22;538;42.654;23.376;2022-08-19T12:54:10;40.00;1.00
1103;DHT22;538;42.654;23.376;2022-08-19T12:56:37;39.80;1.00
1103;DHT22;538;42.654;23.376;2022-08-19T12:59:04;39.20;1.00
1103;DHT22;538;42.654;23.376;2022-08-19T13:01:33;39.00;1.00
1103;DHT22;538;42.654;23.376;2022-08-19T13:04:00;39.00;1.00
1103;DHT22;538;42.654;23.376;2022-08-19T13:06:29;39.10;1.00
1103;DHT22;538;42.654;23.376;2022-08-19T13:08:56;39.20;1.00
1103;DHT22;538;42.654;23.376;2022-08-19T13:11:23;39.00;1.00
1103;DHT22;538;42.654;23.376;2022-08-19T13:13:51;39.10;1.00
1103;DHT22;538;42.654;23.376;2022-08-19T13:16:21;39.20;1.00
1103;DHT22;538;42.654;23.376;2022-08-19T13:18:49;38.80;1.00
1103;DHT22;538;42.654;23.376;2022-08-19T13:21:18;38.70;1.00
1103;DHT22;538;42.654;23.376;2022-08-19T13:23:48;38.50;1.00
1103;DHT22;538;42.654;23.376;2022-08-19T13:26:16;38.60;1.00
1103;DHT22;538;42.654;23.376;2022-08-19T13:28:44;38.50;1.00
1103;DHT22;538;42.654;23.376;2022-08-19T13:31:31;38.10;1.00
1103;DHT22;538;42.654;23.376;2022-08-19T13:34:17;37.90;1.00
1103;DHT22;538;42.654;23.376;2022-08-19T13:36:45;37.70;1.00
1103;DHT22;538;42.654;23.376;2022-08-19T13:39:13;37.20;1.00
1103;DHT22;538;42.654;23.376;2022-08-19T13:41:44;36.80;1.00
1103;DHT22;538;42.654;23.376;2022-08-19T13:44:13;36.50;1.00
1103;DHT22;538;42.654;23.376;2022-08-19T13:46:40;36.50;1.00
1103;DHT22;538;42.654;23.376;2022-08-19T13:49:11;36.60;1.00
1103;DHT22;538;42.654;23.376;2022-08-19T13:51:39;36.70;1.00
1103;DHT22;538;42.654;23.376;2022-08-19T13:54:07;36.90;1.00
1103;DHT22;538;42.654;23.376;2022-08-19T13:56:40;37.00;1.00
1103;DHT22;538;42.654;23.376;2022-08-19T13:59:08;36.90;1.00
1103;DHT22;538;42.654;23.376;2022-08-19T14:01:35;36.90;1.00
1103;DHT22;538;42.654;23.376;2022-08-19T14:04:02;36.90;1.00
1103;DHT22;538;42.654;23.376;2022-08-19T14:06:30;37.00;1.00
1103;DHT22;538;42.654;23.376;2022-08-19T14:08:57;36.80;1.00
1103;DHT22;538;42.654;23.376;2022-08-19T14:11:24;36.80;1.00
1103;DHT22;538;42.654;23.376;2022-08-19T14:13:53;36.90;1.00
1103;DHT22;538;42.654;23.376;2022-08-19T14:16:20;37.00;1.00
1103;DHT22;538;42.654;23.376;2022-08-19T14:18:48;37.00;1.00
1103;DHT22;538;42.654;23.376;2022-08-19T14:21:17;36.60;1.00
1103;DHT22;538;42.654;23.376;2022-08-19T14:23:46;36.70;1.00
1103;DHT22;538;42.654;23.376;2022-08-19T14:26:16;36.60;1.00
1103;DHT22;538;42.654;23.376;2022-08-19T14:28:44;36.70;1.00
1103;DHT22;538;42.654;23.376;2022-08-19T14:31:14;36.80;1.00
1103;DHT22;538;42.654;23.376;2022-08-19T14:33:44;36.80;1.00
1103;DHT22;538;42.654;23.376;2022-08-19T14:36:11;36.70;1.00
1103;DHT22;538;42.654;23.376;2022-08-19T14:38:40;36.70;1.00
1103;DHT22;538;42.654;23.376;2022-08-19T14:41:10;36.70;1.00
1103;DHT22;538;42.654;23.376;2022-08-19T14:43:38;36.70;1.00
1103;DHT22;538;42.654;23.376;2022-08-19T14:46:06;36.70;1.00
1103;DHT22;538;42.654;23.376;2022-08-19T14:48:35;36.70;1.00
1103;DHT22;538;42.654;23.376;2022-08-19T14:51:04;36.50;1.00
1103;DHT22;538;42.654;23.376;2022-08-19T14:53:31;36.60;1.00
1103;DHT22;538;42.654;23.376;2022-08-19T14:56:00;36.70;1.00
1103;DHT22;538;42.654;23.376;2022-08-19T14:58:27;36.80;1.00
1103;DHT22;538;42.654;23.376;2022-08-19T15:00:55;36.80;1.00
1103;DHT22;538;42.654;23.376;2022-08-19T15:03:22;36.80;1.00
1103;DHT22;538;42.654;23.376;2022-08-19T15:05:50;36.70;1.00
1103;DHT22;538;42.654;23.376;2022-08-19T15:08:18;36.70;1.00
1103;DHT22;538;42.654;23.376;2022-08-19T15:10:46;36.60;1.00
1103;DHT22;538;42.654;23.376;2022-08-19T15:13:13;36.50;1.00
1103;DHT22;538;42.654;23.376;2022-08-19T15:15:40;36.50;1.00
1103;DHT22;538;42.654;23.376;2022-08-19T15:18:07;36.50;1.00
1103;DHT22;538;42.654;23.376;2022-08-19T15:20:34;36.40;1.00
1103;DHT22;538;42.654;23.376;2022-08-19T15:23:03;36.40;1.00
1103;DHT22;538;42.654;23.376;2022-08-19T15:25:31;36.40;1.00
1103;DHT22;538;42.654;23.376;2022-08-19T15:27:59;36.30;1.00
1103;DHT22;538;42.654;23.376;2022-08-19T15:30:29;36.30;1.00
1103;DHT22;538;42.654;23.376;2022-08-19T15:32:56;36.30;1.00
1103;DHT22;538;42.654;23.376;2022-08-19T15:35:25;36.30;1.00
1103;DHT22;538;42.654;23.376;2022-08-19T15:37:53;36.20;1.00
1103;DHT22;538;42.654;23.376;2022-08-19T15:40:24;36.20;1.00
1103;DHT22;538;42.654;23.376;2022-08-19T15:42:52;36.10;1.00
1103;DHT22;538;42.654;23.376;2022-08-19T15:45:21;36.10;1.00
1103;DHT22;538;42.654;23.376;2022-08-19T15:47:48;36.00;1.00
1103;DHT22;538;42.654;23.376;2022-08-19T15:50:18;36.00;1.00
1103;DHT22;538;42.654;23.376;2022-08-19T15:52:47;36.00;1.00
1103;DHT22;538;42.654;23.376;2022-08-19T15:55:15;35.90;1.00
1103;DHT22;538;42.654;23.376;2022-08-19T15:57:44;35.90;1.00
1103;DHT22;538;42.654;23.376;2022-08-19T16:00:28;35.90;1.00
1103;DHT22;538;42.654;23.376;2022-08-19T16:03:14;35.80;1.00
1103;DHT22;538;42.654;23.376;2022-08-19T16:05:58;35.70;1.00
1103;DHT22;538;42.654;23.376;2022-08-19T16:08:43;35.60;1.00
1103;DHT22;538;42.654;23.376;2022-08-19T16:11:11;35.50;1.00
1103;DHT22;538;42.654;23.376;2022-08-19T16:13:40;35.50;1.00
1103;DHT22;538;42.654;23.376;2022-08-19T16:16:07;35.50;1.00
1103;DHT22;538;42.654;23.376;2022-08-19T16:18:34;35.30;1.00
1103;DHT22;538;42.654;23.376;2022-08-19T16:21:03;35.30;1.00